Arcadia, Kansas
Current Conditions -  °F | °C
As of 5:55 PM on Monday 22 Dec 2014 (Local Time) from KPTS Reporting Station
Overcast Overcast  
Wind Chill: 48°   Ceiling: 4300
Heat Index: 50°   Visibility: 10mi
Dew Point: 48°   Wind: 6mph
Humidity: 94%   Direction: 310°NW
Pressure: 29.54"   Gusts: NA
Location:  37.64°N, 94.62°W
Report Text: KPTS 222355Z AUTO 31005KT 10SM SCT017 BKN043 OVC055 10/09 A2954 RMK AO2 P0002 T00990089
Loading
Personal Weather Stations






























Interactive Weather Map New forecast layout! Learn more

10-Day Weather Forecast

Advertisements
Track Severe Weather on mobile